createdAt,value
2017-10-24T00:00:02.747Z,23.14
2017-10-24T00:00:34.834Z,23.14
2017-10-24T00:01:06.831Z,23.16
2017-10-24T00:01:38.846Z,23.21
2017-10-24T00:02:10.914Z,23.12
2017-10-24T00:02:42.998Z,23.15
2017-10-24T00:03:15.138Z,23.15
2017-10-24T00:03:47.688Z,23.14
2017-10-24T00:04:19.769Z,23.15
2017-10-24T00:04:51.880Z,23.19
2017-10-24T00:05:24.115Z,23.18
2017-10-24T00:05:56.257Z,23.14
2017-10-24T00:06:28.491Z,23.21
2017-10-24T00:07:00.576Z,23.15
2017-10-24T00:07:32.721Z,23.14
2017-10-24T00:08:04.906Z,23.21
2017-10-24T00:08:36.992Z,23.18
2017-10-24T00:09:09.197Z,23.22
2017-10-24T00:09:41.527Z,23.19
2017-10-24T00:10:13.665Z,23.22
2017-10-24T00:10:45.828Z,23.18
2017-10-24T00:11:18.170Z,23.16
2017-10-24T00:11:50.297Z,23.15
2017-10-24T00:12:22.399Z,23.22
2017-10-24T00:12:54.481Z,23.19
2017-10-24T00:13:26.609Z,23.21
2017-10-24T00:13:58.734Z,23.21
2017-10-24T00:14:30.754Z,23.26
2017-10-24T00:15:02.959Z,23.22
2017-10-24T00:15:35.091Z,23.15
2017-10-24T00:16:07.209Z,23.19
2017-10-24T00:16:39.483Z,23.15
2017-10-24T00:17:11.732Z,23.25
2017-10-24T00:17:43.854Z,23.25
2017-10-24T00:18:15.990Z,23.21
2017-10-24T00:18:48.059Z,23.21
2017-10-24T00:19:20.266Z,23.21
2017-10-24T00:19:52.582Z,23.19
2017-10-24T00:20:24.773Z,23.26
2017-10-24T00:20:56.923Z,23.24
2017-10-24T00:21:28.985Z,23.26
2017-10-24T00:22:01.072Z,23.22
2017-10-24T00:22:33.201Z,23.12
2017-10-24T00:23:05.445Z,23.18
2017-10-24T00:23:37.635Z,23.18
2017-10-24T00:24:09.717Z,23.26
2017-10-24T00:24:41.791Z,23.24
2017-10-24T00:25:13.879Z,23.22
2017-10-24T00:25:46.085Z,23.21
2017-10-24T00:26:18.169Z,23.25
2017-10-24T00:26:50.292Z,23.15
2017-10-24T00:27:22.365Z,23.21
2017-10-24T00:27:54.435Z,23.19
2017-10-24T00:28:26.572Z,23.24
2017-10-24T00:28:58.762Z,23.25
2017-10-24T00:29:30.892Z,23.26
2017-10-24T00:30:02.910Z,23.21
2017-10-24T00:30:34.994Z,23.19
2017-10-24T00:31:07.183Z,23.24
2017-10-24T00:31:39.279Z,23.29
2017-10-24T00:32:11.346Z,23.21
2017-10-24T00:32:43.541Z,23.28
2017-10-24T00:33:15.622Z,23.26
2017-10-24T00:33:47.686Z,23.22
2017-10-24T00:34:19.884Z,23.24
2017-10-24T00:34:52.216Z,23.25
2017-10-24T00:35:24.311Z,23.21
2017-10-24T00:35:56.552Z,23.28
2017-10-24T00:36:28.682Z,23.19
2017-10-24T00:37:00.709Z,23.29
2017-10-24T00:37:32.896Z,23.29
2017-10-24T00:38:05.186Z,23.26
2017-10-24T00:38:37.344Z,23.21
2017-10-24T00:39:09.383Z,23.24
2017-10-24T00:39:41.529Z,23.32
2017-10-24T00:40:13.669Z,23.28
2017-10-24T00:40:45.861Z,23.28
2017-10-24T00:41:17.976Z,23.28
2017-10-24T00:41:50.041Z,23.25
2017-10-24T00:42:22.267Z,23.19
2017-10-24T00:42:54.467Z,23.28
2017-10-24T00:43:26.498Z,23.24
2017-10-24T00:43:58.629Z,23.26
2017-10-24T00:44:30.766Z,23.21
2017-10-24T00:45:03.035Z,23.25
2017-10-24T00:45:35.163Z,23.24
2017-10-24T00:46:08.111Z,23.28
2017-10-24T00:46:40.363Z,23.21
2017-10-24T00:47:12.455Z,23.22
2017-10-24T00:47:45.411Z,23.24
2017-10-24T00:48:17.621Z,23.29
2017-10-24T00:48:49.759Z,23.24
2017-10-24T00:49:21.839Z,23.18
2017-10-24T00:49:53.975Z,23.34
2017-10-24T00:50:26.158Z,23.26
2017-10-24T00:50:58.424Z,23.26
2017-10-24T00:51:30.661Z,23.26
2017-10-24T00:52:03.715Z,23.25
2017-10-24T00:52:35.741Z,23.26
2017-10-24T00:53:07.945Z,23.28
2017-10-24T00:53:40.065Z,23.25
2017-10-24T00:54:12.166Z,23.26
2017-10-24T00:54:44.268Z,23.26
2017-10-24T00:55:16.295Z,23.29
2017-10-24T00:55:48.426Z,23.35
2017-10-24T00:56:20.441Z,23.35
2017-10-24T00:56:52.631Z,23.38
2017-10-24T00:57:24.742Z,23.28
2017-10-24T00:57:57.724Z,23.32
2017-10-24T00:58:29.808Z,23.32
2017-10-24T00:59:02.041Z,23.35
2017-10-24T00:59:34.122Z,23.26
2017-10-24T01:00:06.341Z,23.35
2017-10-24T01:00:38.427Z,23.29
2017-10-24T01:01:10.572Z,23.37
2017-10-24T01:01:42.642Z,23.38
2017-10-24T01:02:14.730Z,23.34
2017-10-24T01:02:47.630Z,23.38
2017-10-24T01:03:19.692Z,23.28
2017-10-24T01:03:51.779Z,23.34
2017-10-24T01:04:23.971Z,23.28
2017-10-24T01:04:56.104Z,23.37
2017-10-24T01:05:28.240Z,23.38
2017-10-24T01:06:00.265Z,23.38
2017-10-24T01:06:32.466Z,23.38
2017-10-24T01:07:04.608Z,23.4
2017-10-24T01:07:36.805Z,23.4
2017-10-24T01:08:08.944Z,23.34
2017-10-24T01:08:41.126Z,23.38
2017-10-24T01:09:13.210Z,23.29
2017-10-24T01:09:45.458Z,23.38
2017-10-24T01:10:17.662Z,23.38
2017-10-24T01:10:49.762Z,23.32
2017-10-24T01:11:21.824Z,23.28
2017-10-24T01:11:53.929Z,23.34
2017-10-24T01:12:26.130Z,23.37
2017-10-24T01:12:58.303Z,23.28
2017-10-24T01:13:30.441Z,23.38
2017-10-24T01:14:02.535Z,23.4
2017-10-24T01:14:34.677Z,23.42
2017-10-24T01:15:06.692Z,23.44
2017-10-24T01:15:38.782Z,23.41
2017-10-24T01:16:11.767Z,23.34
2017-10-24T01:16:44.004Z,23.34
2017-10-24T01:17:16.252Z,23.41
2017-10-24T01:17:48.354Z,23.38
2017-10-24T01:18:20.499Z,23.35
2017-10-24T01:18:52.542Z,23.4
2017-10-24T01:19:24.631Z,23.28
2017-10-24T01:19:56.773Z,23.28
2017-10-24T01:20:28.794Z,23.4
2017-10-24T01:21:00.821Z,23.37
2017-10-24T01:21:33.097Z,23.37
2017-10-24T01:22:05.308Z,23.37
2017-10-24T01:22:37.438Z,23.38
2017-10-24T01:23:09.583Z,23.34
2017-10-24T01:23:41.652Z,23.38
2017-10-24T01:24:13.792Z,23.32
2017-10-24T01:24:46.012Z,23.38
2017-10-24T01:25:18.244Z,23.41
2017-10-24T01:25:50.430Z,23.38
2017-10-24T01:26:22.633Z,23.4
2017-10-24T01:26:54.773Z,23.42
2017-10-24T01:27:26.896Z,23.41
2017-10-24T01:27:58.985Z,23.41
2017-10-24T01:28:31.038Z,23.37
2017-10-24T01:29:03.069Z,23.37
2017-10-24T01:29:35.091Z,23.38
2017-10-24T01:30:07.173Z,23.4
2017-10-24T01:30:39.307Z,23.32
2017-10-24T01:31:11.452Z,23.4
2017-10-24T01:31:43.535Z,23.38
2017-10-24T01:32:15.818Z,23.29
2017-10-24T01:32:47.889Z,23.35
2017-10-24T01:33:19.993Z,23.4
2017-10-24T01:33:52.247Z,23.37
2017-10-24T01:34:24.519Z,23.35
2017-10-24T01:34:56.712Z,23.41
2017-10-24T01:35:28.926Z,23.35
2017-10-24T01:36:01.040Z,23.45
2017-10-24T01:36:33.140Z,23.41
2017-10-24T01:37:05.289Z,23.38
2017-10-24T01:37:37.480Z,23.42
2017-10-24T01:38:09.652Z,23.41
2017-10-24T01:38:41.906Z,23.41
2017-10-24T01:39:13.997Z,23.41
2017-10-24T01:39:46.210Z,23.34
2017-10-24T01:40:19.280Z,23.42
2017-10-24T01:40:51.476Z,23.44
2017-10-24T01:41:23.671Z,23.38
2017-10-24T01:41:55.756Z,23.42
2017-10-24T01:42:27.893Z,23.37
2017-10-24T01:42:59.991Z,23.4
2017-10-24T01:43:32.059Z,23.4
2017-10-24T01:44:04.213Z,23.37
2017-10-24T01:44:36.420Z,23.41
2017-10-24T01:45:08.621Z,23.35
2017-10-24T01:45:40.709Z,23.38
2017-10-24T01:46:12.925Z,23.4
2017-10-24T01:46:45.048Z,23.41
2017-10-24T01:47:17.138Z,23.37
2017-10-24T01:47:49.218Z,23.42
2017-10-24T01:48:21.291Z,23.41
2017-10-24T01:48:53.328Z,23.35
2017-10-24T01:49:25.393Z,23.4
2017-10-24T01:49:57.465Z,23.37
2017-10-24T01:50:29.549Z,23.41
2017-10-24T01:51:01.594Z,23.28
2017-10-24T01:51:33.866Z,23.32
2017-10-24T01:52:06.113Z,23.35
2017-10-24T01:52:38.254Z,23.29
2017-10-24T01:53:10.328Z,23.41
2017-10-24T01:53:42.558Z,23.44
2017-10-24T01:54:14.778Z,23.41
2017-10-24T01:54:46.980Z,23.41
2017-10-24T01:55:19.056Z,23.42
2017-10-24T01:55:51.124Z,23.41
2017-10-24T01:56:23.160Z,23.41
2017-10-24T01:56:55.367Z,23.41
2017-10-24T01:57:27.504Z,23.29
2017-10-24T01:57:59.685Z,23.37
2017-10-24T01:58:31.826Z,23.37
2017-10-24T01:59:03.901Z,23.42
2017-10-24T01:59:36.100Z,23.45
2017-10-24T02:00:08.289Z,23.4
2017-10-24T02:00:40.499Z,23.4
2017-10-24T02:01:12.615Z,23.41
2017-10-24T02:01:44.760Z,23.37
2017-10-24T02:02:16.884Z,23.34
2017-10-24T02:02:48.985Z,23.45
2017-10-24T02:03:21.130Z,23.4
2017-10-24T02:03:53.279Z,23.37
2017-10-24T02:04:25.428Z,23.41
2017-10-24T02:04:57.615Z,23.44
2017-10-24T02:05:29.818Z,23.45
2017-10-24T02:06:01.904Z,23.41
2017-10-24T02:06:34.046Z,23.44
2017-10-24T02:07:06.288Z,23.45
2017-10-24T02:07:38.361Z,23.35
2017-10-24T02:08:10.597Z,23.37
2017-10-24T02:08:42.840Z,23.38
2017-10-24T02:09:15.056Z,23.38
2017-10-24T02:09:47.226Z,23.4
2017-10-24T02:10:19.486Z,23.38
2017-10-24T02:10:51.573Z,23.42
2017-10-24T02:11:23.679Z,23.47
2017-10-24T02:11:55.813Z,23.47
2017-10-24T02:12:28.091Z,23.41
2017-10-24T02:13:00.262Z,23.4
2017-10-24T02:13:32.414Z,23.48
2017-10-24T02:14:04.580Z,23.47
2017-10-24T02:14:36.715Z,23.41
2017-10-24T02:15:08.789Z,23.47
2017-10-24T02:15:40.877Z,23.45
2017-10-24T02:16:13.040Z,23.42
2017-10-24T02:16:45.127Z,23.44
2017-10-24T02:17:17.365Z,23.42
2017-10-24T02:17:49.510Z,23.44
2017-10-24T02:18:21.597Z,23.44
2017-10-24T02:18:53.744Z,23.44
2017-10-24T02:19:25.920Z,23.45
2017-10-24T02:19:58.011Z,23.47
2017-10-24T02:20:30.137Z,23.47
2017-10-24T02:21:02.267Z,23.47
2017-10-24T02:21:34.354Z,23.47
2017-10-24T02:22:06.430Z,23.48
2017-10-24T02:22:38.505Z,23.45
2017-10-24T02:23:10.583Z,23.45
2017-10-24T02:23:42.787Z,23.42
2017-10-24T02:24:14.827Z,23.48
2017-10-24T02:24:46.880Z,23.42
2017-10-24T02:25:18.987Z,23.47
2017-10-24T02:25:51.269Z,23.48
2017-10-24T02:26:23.573Z,23.45
2017-10-24T02:26:55.594Z,23.44
2017-10-24T02:27:27.691Z,23.47
2017-10-24T02:27:59.769Z,23.5
2017-10-24T02:28:31.850Z,23.48
2017-10-24T02:29:03.997Z,23.44
2017-10-24T02:29:36.129Z,23.5
2017-10-24T02:30:08.255Z,23.47
2017-10-24T02:30:40.341Z,23.44
2017-10-24T02:31:12.415Z,23.57
2017-10-24T02:31:44.546Z,23.5
2017-10-24T02:32:16.686Z,23.5
2017-10-24T02:32:48.841Z,23.48
2017-10-24T02:33:21.070Z,23.45
2017-10-24T02:33:53.237Z,23.48
2017-10-24T02:34:25.308Z,23.53
2017-10-24T02:34:57.405Z,23.55
2017-10-24T02:35:29.570Z,23.5
2017-10-24T02:36:01.779Z,23.48
2017-10-24T02:36:33.986Z,23.59
2017-10-24T02:37:06.126Z,23.59
2017-10-24T02:37:38.811Z,23.48
2017-10-24T02:38:11.079Z,23.5
2017-10-24T02:38:43.272Z,23.47
2017-10-24T02:39:15.519Z,23.56
2017-10-24T02:39:47.620Z,23.55
2017-10-24T02:40:19.726Z,23.52
2017-10-24T02:40:51.860Z,23.57
2017-10-24T02:41:23.999Z,23.56
2017-10-24T02:41:56.019Z,23.6
2017-10-24T02:42:28.151Z,23.47
2017-10-24T02:43:00.190Z,23.53
2017-10-24T02:43:32.300Z,23.5
2017-10-24T02:44:04.442Z,23.52
2017-10-24T02:44:36.469Z,23.52
2017-10-24T02:45:08.504Z,23.62
2017-10-24T02:45:40.578Z,23.53
2017-10-24T02:46:12.705Z,23.57
2017-10-24T02:46:44.787Z,23.53
2017-10-24T02:47:16.931Z,23.53
2017-10-24T02:47:49.132Z,23.52
2017-10-24T02:48:21.287Z,23.6
2017-10-24T02:48:53.376Z,23.56
2017-10-24T02:49:25.500Z,23.53
2017-10-24T02:49:57.676Z,23.5
2017-10-24T02:50:29.893Z,23.53
2017-10-24T02:51:02.027Z,23.5
2017-10-24T02:51:34.118Z,23.56
2017-10-24T02:52:06.794Z,23.53
2017-10-24T02:52:38.952Z,23.52
2017-10-24T02:53:11.137Z,23.6
2017-10-24T02:53:43.206Z,23.55
2017-10-24T02:54:15.291Z,23.55
2017-10-24T02:54:47.430Z,23.5
2017-10-24T02:55:19.572Z,23.5
2017-10-24T02:55:51.724Z,23.6
2017-10-24T02:56:23.861Z,23.57
2017-10-24T02:56:55.905Z,23.56
2017-10-24T02:57:28.014Z,23.5
2017-10-24T02:58:00.125Z,23.53
2017-10-24T02:58:32.192Z,23.57
2017-10-24T02:59:04.222Z,23.59
2017-10-24T02:59:36.429Z,23.5
2017-10-24T03:00:08.558Z,23.56
2017-10-24T03:00:40.743Z,23.53
2017-10-24T03:01:12.871Z,23.53
2017-10-24T03:01:45.061Z,23.53
2017-10-24T03:02:17.142Z,23.55
2017-10-24T03:02:49.225Z,23.57
2017-10-24T03:03:21.318Z,23.64
2017-10-24T03:03:53.532Z,23.59
2017-10-24T03:04:25.724Z,23.6
2017-10-24T03:04:57.912Z,23.56
2017-10-24T03:05:30.060Z,23.52
2017-10-24T03:06:02.128Z,23.57
2017-10-24T03:06:34.227Z,23.53
2017-10-24T03:07:06.369Z,23.6
2017-10-24T03:07:38.520Z,23.55
2017-10-24T03:08:10.651Z,23.52
2017-10-24T03:08:42.736Z,23.57
2017-10-24T03:09:14.870Z,23.6
2017-10-24T03:09:46.963Z,23.6
2017-10-24T03:10:19.078Z,23.59
2017-10-24T03:10:51.086Z,23.66
2017-10-24T03:11:23.252Z,23.6
2017-10-24T03:11:55.434Z,23.55
2017-10-24T03:12:27.559Z,23.57
2017-10-24T03:12:59.759Z,23.52
2017-10-24T03:13:31.956Z,23.59
2017-10-24T03:14:04.038Z,23.6
2017-10-24T03:14:36.116Z,23.59
2017-10-24T03:15:08.319Z,23.63
2017-10-24T03:15:40.480Z,23.56
2017-10-24T03:16:13.307Z,23.56
2017-10-24T03:16:45.406Z,23.6
2017-10-24T03:17:17.524Z,23.6
2017-10-24T03:17:50.610Z,23.6
2017-10-24T03:18:22.691Z,23.6
2017-10-24T03:18:54.858Z,23.6
2017-10-24T03:19:27.010Z,23.56
2017-10-24T03:19:59.093Z,23.57
2017-10-24T03:20:31.367Z,23.6
2017-10-24T03:21:03.445Z,23.59
2017-10-24T03:21:35.486Z,23.62
2017-10-24T03:22:07.625Z,23.62
2017-10-24T03:22:39.792Z,23.59
2017-10-24T03:23:11.874Z,23.59
2017-10-24T03:23:44.034Z,23.6
2017-10-24T03:24:16.162Z,23.63
2017-10-24T03:24:48.255Z,23.57
2017-10-24T03:25:20.464Z,23.63
2017-10-24T03:25:52.728Z,23.57
2017-10-24T03:26:24.819Z,23.59
2017-10-24T03:26:57.001Z,23.6
2017-10-24T03:27:29.205Z,23.57
2017-10-24T03:28:01.273Z,23.59
2017-10-24T03:28:33.361Z,23.62
2017-10-24T03:29:05.492Z,23.6
2017-10-24T03:29:37.676Z,23.59
2017-10-24T03:30:09.751Z,23.6
2017-10-24T03:30:42.000Z,23.66
2017-10-24T03:31:14.152Z,23.57
2017-10-24T03:31:46.288Z,23.57
2017-10-24T03:32:18.530Z,23.62
2017-10-24T03:32:50.555Z,23.62
2017-10-24T03:33:22.773Z,23.56
2017-10-24T03:33:54.866Z,23.62
2017-10-24T03:34:26.942Z,23.57
2017-10-24T03:34:59.159Z,23.57
2017-10-24T03:35:31.287Z,23.63
2017-10-24T03:36:03.428Z,23.57
2017-10-24T03:36:35.603Z,23.7
2017-10-24T03:37:07.796Z,23.62
2017-10-24T03:37:39.971Z,23.62
2017-10-24T03:38:12.055Z,23.57
2017-10-24T03:38:44.195Z,23.59
2017-10-24T03:39:16.400Z,23.55
2017-10-24T03:39:48.477Z,23.62
2017-10-24T03:40:20.569Z,23.66
2017-10-24T03:40:52.755Z,23.62
2017-10-24T03:41:24.952Z,23.62
2017-10-24T03:41:57.129Z,23.66
2017-10-24T03:42:29.356Z,23.62
2017-10-24T03:43:01.477Z,23.57
2017-10-24T03:43:33.666Z,23.6
2017-10-24T03:44:05.774Z,23.57
2017-10-24T03:44:37.984Z,23.66
2017-10-24T03:45:10.196Z,23.6
2017-10-24T03:45:42.341Z,23.62
2017-10-24T03:46:14.570Z,23.62
2017-10-24T03:46:46.741Z,23.64
2017-10-24T03:47:18.890Z,23.62
2017-10-24T03:47:51.133Z,23.6
2017-10-24T03:48:23.413Z,23.63
2017-10-24T03:48:55.610Z,23.63
2017-10-24T03:49:27.802Z,23.59
2017-10-24T03:50:00.042Z,23.64
2017-10-24T03:50:32.170Z,23.63
2017-10-24T03:51:04.351Z,23.59
2017-10-24T03:51:36.539Z,23.66
2017-10-24T03:52:08.619Z,23.63
2017-10-24T03:52:40.679Z,23.63
2017-10-24T03:53:12.756Z,23.62
2017-10-24T03:53:44.942Z,23.67
2017-10-24T03:54:17.074Z,23.57
2017-10-24T03:54:49.225Z,23.63
2017-10-24T03:55:21.423Z,23.62
2017-10-24T03:55:53.666Z,23.6
2017-10-24T03:56:25.750Z,23.6
2017-10-24T03:56:57.884Z,23.57
2017-10-24T03:57:29.970Z,23.59
2017-10-24T03:58:02.221Z,23.62
2017-10-24T03:58:34.451Z,23.6
2017-10-24T03:59:06.724Z,23.66
2017-10-24T03:59:38.986Z,23.63
2017-10-24T04:00:11.074Z,23.6
2017-10-24T04:00:43.201Z,23.66
2017-10-24T04:01:15.296Z,23.63
2017-10-24T04:01:47.592Z,23.6
2017-10-24T04:02:19.718Z,23.62
2017-10-24T04:02:51.903Z,23.63
2017-10-24T04:03:24.030Z,23.62
2017-10-24T04:03:56.067Z,23.64
2017-10-24T04:04:28.104Z,23.62
2017-10-24T04:05:00.242Z,23.59
2017-10-24T04:05:32.429Z,23.59
2017-10-24T04:06:04.517Z,23.6
2017-10-24T04:06:36.578Z,23.6
2017-10-24T04:07:08.694Z,23.62
2017-10-24T04:07:40.826Z,23.59
2017-10-24T04:08:12.956Z,23.62
2017-10-24T04:08:45.083Z,23.62
2017-10-24T04:09:17.298Z,23.62
2017-10-24T04:09:49.484Z,23.64
2017-10-24T04:10:21.568Z,23.6
2017-10-24T04:10:53.650Z,23.6
2017-10-24T04:11:25.778Z,23.6
2017-10-24T04:11:57.794Z,23.63
2017-10-24T04:12:29.870Z,23.63
2017-10-24T04:13:02.006Z,23.63
2017-10-24T04:13:34.163Z,23.6
2017-10-24T04:14:06.421Z,23.59
2017-10-24T04:14:38.546Z,23.56
2017-10-24T04:15:10.631Z,23.57
2017-10-24T04:15:42.821Z,23.59
2017-10-24T04:16:14.914Z,23.59
2017-10-24T04:16:46.980Z,23.55
2017-10-24T04:17:19.117Z,23.59
2017-10-24T04:17:51.275Z,23.56
2017-10-24T04:18:23.516Z,23.62
2017-10-24T04:18:55.756Z,23.59
2017-10-24T04:19:27.829Z,23.6
2017-10-24T04:19:59.966Z,23.6
2017-10-24T04:20:32.046Z,23.62
2017-10-24T04:21:04.188Z,23.56
2017-10-24T04:21:36.396Z,23.55
2017-10-24T04:22:08.478Z,23.6
2017-10-24T04:22:40.705Z,23.56
2017-10-24T04:23:12.717Z,23.56
2017-10-24T04:23:44.792Z,23.66
2017-10-24T04:24:16.962Z,23.57
2017-10-24T04:24:49.158Z,23.59
2017-10-24T04:25:21.222Z,23.66
2017-10-24T04:25:53.443Z,23.59
2017-10-24T04:26:25.704Z,23.6
2017-10-24T04:26:57.871Z,23.56
2017-10-24T04:27:30.057Z,23.55
2017-10-24T04:28:02.190Z,23.59
2017-10-24T04:28:34.277Z,23.6
2017-10-24T04:29:06.312Z,23.62
2017-10-24T04:29:38.445Z,23.57
2017-10-24T04:30:10.527Z,23.53
2017-10-24T04:30:42.817Z,23.56
2017-10-24T04:31:14.915Z,23.53
2017-10-24T04:31:47.074Z,23.57
2017-10-24T04:32:19.266Z,23.56
2017-10-24T04:32:51.338Z,23.57
2017-10-24T04:33:23.598Z,23.57
2017-10-24T04:33:55.771Z,23.59
2017-10-24T04:34:27.810Z,23.53
2017-10-24T04:34:59.994Z,23.59
2017-10-24T04:35:32.261Z,23.52
2017-10-24T04:36:04.274Z,23.52
2017-10-24T04:36:36.545Z,23.5
2017-10-24T04:37:08.752Z,23.53
2017-10-24T04:37:40.893Z,23.53
2017-10-24T04:38:13.118Z,23.55
2017-10-24T04:38:46.196Z,23.6
2017-10-24T04:39:18.410Z,23.5
2017-10-24T04:39:50.485Z,23.55
2017-10-24T04:40:22.757Z,23.53
2017-10-24T04:40:54.908Z,23.57
2017-10-24T04:41:26.979Z,23.53
2017-10-24T04:41:59.095Z,23.55
2017-10-24T04:42:31.222Z,23.56
2017-10-24T04:43:03.315Z,23.52
2017-10-24T04:43:35.623Z,23.56
2017-10-24T04:44:07.762Z,23.57
2017-10-24T04:44:39.876Z,23.53
2017-10-24T04:45:11.909Z,23.55
2017-10-24T04:45:44.637Z,23.55
2017-10-24T04:46:16.899Z,23.53
2017-10-24T04:46:48.995Z,23.53
2017-10-24T04:47:21.118Z,23.53
2017-10-24T04:47:53.198Z,23.59
2017-10-24T04:48:25.332Z,23.5
2017-10-24T04:48:57.420Z,23.6
2017-10-24T04:49:29.546Z,23.56
2017-10-24T04:50:01.677Z,23.53
2017-10-24T04:50:33.814Z,23.53
2017-10-24T04:51:06.142Z,23.48
2017-10-24T04:51:38.328Z,23.55
2017-10-24T04:52:10.461Z,23.57
2017-10-24T04:52:42.646Z,23.53
2017-10-24T04:53:14.791Z,23.53
2017-10-24T04:53:46.820Z,23.57
2017-10-24T04:54:18.845Z,23.53
2017-10-24T04:54:50.999Z,23.59
2017-10-24T04:55:23.256Z,23.47
2017-10-24T04:55:55.452Z,23.59
2017-10-24T04:56:27.585Z,23.52
2017-10-24T04:56:59.779Z,23.56
2017-10-24T04:57:31.849Z,23.52
2017-10-24T04:58:03.979Z,23.59
2017-10-24T04:58:36.070Z,23.55
2017-10-24T04:59:08.143Z,23.59
2017-10-24T04:59:40.219Z,23.6
2017-10-24T05:00:12.366Z,23.52
2017-10-24T05:00:44.546Z,23.5
2017-10-24T05:01:16.666Z,23.5
2017-10-24T05:01:48.931Z,23.59
2017-10-24T05:02:21.062Z,23.56
2017-10-24T05:02:53.196Z,23.59
2017-10-24T05:03:25.241Z,23.48
2017-10-24T05:03:57.363Z,23.44
2017-10-24T05:04:29.597Z,23.48
2017-10-24T05:05:01.777Z,23.45
2017-10-24T05:05:33.893Z,23.5
2017-10-24T05:06:05.987Z,23.5
2017-10-24T05:06:38.117Z,23.45
2017-10-24T05:07:10.217Z,23.45
2017-10-24T05:07:42.352Z,23.48
2017-10-24T05:08:14.545Z,23.44
2017-10-24T05:08:46.905Z,23.45
2017-10-24T05:09:19.052Z,23.42
2017-10-24T05:09:51.273Z,23.4
2017-10-24T05:10:23.467Z,23.48
2017-10-24T05:10:55.540Z,23.45
2017-10-24T05:11:27.739Z,23.47
2017-10-24T05:11:59.981Z,23.45
2017-10-24T05:12:32.077Z,23.41
2017-10-24T05:13:04.314Z,23.48
2017-10-24T05:13:36.465Z,23.47
2017-10-24T05:14:08.676Z,23.42
2017-10-24T05:14:40.923Z,23.45
2017-10-24T05:15:13.116Z,23.47
2017-10-24T05:15:45.302Z,23.45
2017-10-24T05:16:17.443Z,23.45
2017-10-24T05:16:49.509Z,23.47
2017-10-24T05:17:21.695Z,23.45
2017-10-24T05:17:53.835Z,23.41
2017-10-24T05:18:25.938Z,23.48
2017-10-24T05:18:58.075Z,23.44
2017-10-24T05:19:30.162Z,23.47
2017-10-24T05:20:02.258Z,23.44
2017-10-24T05:20:34.347Z,23.47
2017-10-24T05:21:06.530Z,23.42
2017-10-24T05:21:38.662Z,23.41
2017-10-24T05:22:10.782Z,23.44
2017-10-24T05:22:42.978Z,23.41
2017-10-24T05:23:15.233Z,23.47
2017-10-24T05:23:47.532Z,23.5
2017-10-24T05:24:19.610Z,23.45
2017-10-24T05:24:51.885Z,23.42
2017-10-24T05:25:23.882Z,23.47
2017-10-24T05:25:56.088Z,23.47
2017-10-24T05:26:28.219Z,23.44
2017-10-24T05:27:00.457Z,23.5
2017-10-24T05:27:32.607Z,23.47
2017-10-24T05:28:04.690Z,23.47
2017-10-24T05:28:36.821Z,23.41
2017-10-24T05:29:09.081Z,23.41
2017-10-24T05:29:41.103Z,23.44
2017-10-24T05:30:13.187Z,23.45
2017-10-24T05:30:45.340Z,23.44
2017-10-24T05:31:17.554Z,23.38
2017-10-24T05:31:49.686Z,23.42
2017-10-24T05:32:21.894Z,23.45
2017-10-24T05:32:54.090Z,23.47
2017-10-24T05:33:26.246Z,23.42
2017-10-24T05:33:58.284Z,23.48
2017-10-24T05:34:30.468Z,23.47
2017-10-24T05:35:02.565Z,23.41
2017-10-24T05:35:34.738Z,23.45
2017-10-24T05:36:06.827Z,23.44
2017-10-24T05:36:38.922Z,23.52
2017-10-24T05:37:11.165Z,23.42
2017-10-24T05:37:43.449Z,23.44
2017-10-24T05:38:15.596Z,23.47
2017-10-24T05:38:47.838Z,23.47
2017-10-24T05:39:20.018Z,23.42
2017-10-24T05:39:52.252Z,23.41
2017-10-24T05:40:24.334Z,23.44
2017-10-24T05:40:56.534Z,23.41
2017-10-24T05:41:28.712Z,23.35
2017-10-24T05:42:00.911Z,23.44
2017-10-24T05:42:32.981Z,23.47
2017-10-24T05:43:05.257Z,23.38
2017-10-24T05:43:37.384Z,23.41
2017-10-24T05:44:09.547Z,23.38
2017-10-24T05:44:41.590Z,23.47
2017-10-24T05:45:13.778Z,23.41
2017-10-24T05:45:45.916Z,23.38
2017-10-24T05:46:18.070Z,23.4
2017-10-24T05:46:51.126Z,23.44
2017-10-24T05:47:23.283Z,23.41
2017-10-24T05:47:55.351Z,23.37
2017-10-24T05:48:27.386Z,23.48
2017-10-24T05:48:59.572Z,23.42
2017-10-24T05:49:31.827Z,23.44
2017-10-24T05:50:04.060Z,23.41
2017-10-24T05:50:36.199Z,23.44
2017-10-24T05:51:08.337Z,23.42
2017-10-24T05:51:40.478Z,23.42
2017-10-24T05:52:12.655Z,23.47
2017-10-24T05:52:44.801Z,23.48
2017-10-24T05:53:17.017Z,23.4
2017-10-24T05:53:49.142Z,23.44
2017-10-24T05:54:21.304Z,23.44
2017-10-24T05:54:53.436Z,23.44
2017-10-24T05:55:25.612Z,23.52
2017-10-24T05:55:57.786Z,23.38
2017-10-24T05:56:29.854Z,23.44
2017-10-24T05:57:01.934Z,23.37
2017-10-24T05:57:34.149Z,23.44
2017-10-24T05:58:06.185Z,23.4
2017-10-24T05:58:38.393Z,23.44
2017-10-24T05:59:10.550Z,23.48
2017-10-24T05:59:42.683Z,23.45
2017-10-24T06:00:14.758Z,23.38
2017-10-24T06:00:46.879Z,23.42
2017-10-24T06:01:19.078Z,23.41
2017-10-24T06:01:51.270Z,23.35
2017-10-24T06:02:23.348Z,23.45
2017-10-24T06:02:55.387Z,23.44
2017-10-24T06:03:28.189Z,23.35
2017-10-24T06:04:00.277Z,23.42
2017-10-24T06:04:32.438Z,23.35
2017-10-24T06:05:04.584Z,23.42
2017-10-24T06:05:36.780Z,23.48
2017-10-24T06:06:08.843Z,23.45
2017-10-24T06:06:40.932Z,23.45
2017-10-24T06:07:13.100Z,23.35
2017-10-24T06:07:45.316Z,23.48
2017-10-24T06:08:17.459Z,23.44
2017-10-24T06:08:49.639Z,23.37
2017-10-24T06:09:21.789Z,23.37
2017-10-24T06:09:53.858Z,23.45
2017-10-24T06:10:26.072Z,23.4
2017-10-24T06:10:58.115Z,23.41
2017-10-24T06:11:30.299Z,23.42
2017-10-24T06:12:02.589Z,23.34
2017-10-24T06:12:34.727Z,23.38
2017-10-24T06:13:07.435Z,23.37
2017-10-24T06:13:39.687Z,23.44
2017-10-24T06:14:11.834Z,23.48
2017-10-24T06:14:43.917Z,23.37
2017-10-24T06:15:16.138Z,23.4
2017-10-24T06:15:48.909Z,23.34
2017-10-24T06:16:21.175Z,23.42
2017-10-24T06:16:53.352Z,23.47
2017-10-24T06:17:25.499Z,23.35
2017-10-24T06:17:57.593Z,23.44
2017-10-24T06:18:29.702Z,23.47
2017-10-24T06:19:01.828Z,23.47
2017-10-24T06:19:34.090Z,23.42
2017-10-24T06:20:06.300Z,23.44
2017-10-24T06:20:38.383Z,23.45
2017-10-24T06:21:10.457Z,23.38
2017-10-24T06:21:42.589Z,23.48
2017-10-24T06:22:14.660Z,23.42
2017-10-24T06:22:46.701Z,23.4
2017-10-24T06:23:18.737Z,23.45
2017-10-24T06:23:50.813Z,23.41
2017-10-24T06:24:22.969Z,23.44
2017-10-24T06:24:55.072Z,23.41
2017-10-24T06:25:27.281Z,23.44
2017-10-24T06:25:59.538Z,23.42
2017-10-24T06:26:31.694Z,23.47
2017-10-24T06:27:03.886Z,23.42
2017-10-24T06:27:36.234Z,23.47
2017-10-24T06:28:08.307Z,23.44
2017-10-24T06:28:40.458Z,23.44
2017-10-24T06:29:12.667Z,23.47
2017-10-24T06:29:44.765Z,23.47
2017-10-24T06:30:17.232Z,23.41
2017-10-24T06:30:49.465Z,23.41
2017-10-24T06:31:21.619Z,23.42
2017-10-24T06:31:53.855Z,23.45
2017-10-24T06:32:26.102Z,23.5
2017-10-24T06:32:58.240Z,23.47
2017-10-24T06:33:30.492Z,23.41
2017-10-24T06:34:02.746Z,23.38
2017-10-24T06:34:34.920Z,23.41
2017-10-24T06:35:07.082Z,23.47
2017-10-24T06:35:39.163Z,23.47
2017-10-24T06:36:11.592Z,23.41
2017-10-24T06:36:43.618Z,23.47
2017-10-24T06:37:15.728Z,23.47
2017-10-24T06:37:47.870Z,23.48
2017-10-24T06:38:20.186Z,23.48
2017-10-24T06:38:52.389Z,23.42
2017-10-24T06:39:24.527Z,23.34
2017-10-24T06:39:56.676Z,23.45
2017-10-24T06:40:28.879Z,23.44
2017-10-24T06:41:01.204Z,23.44
2017-10-24T06:41:33.439Z,23.45
2017-10-24T06:42:05.625Z,23.45
2017-10-24T06:42:37.674Z,23.47
2017-10-24T06:43:09.922Z,23.45
2017-10-24T06:43:42.046Z,23.47
2017-10-24T06:44:14.121Z,23.44
2017-10-24T06:44:46.267Z,23.48
2017-10-24T06:45:18.427Z,23.47
2017-10-24T06:45:50.670Z,23.44
2017-10-24T06:46:22.859Z,23.48
2017-10-24T06:46:54.942Z,23.42
2017-10-24T06:47:27.021Z,23.44
2017-10-24T06:47:59.114Z,23.41
2017-10-24T06:48:31.416Z,23.5
2017-10-24T06:49:03.543Z,23.47
2017-10-24T06:49:35.864Z,23.47
2017-10-24T06:50:07.993Z,23.44
2017-10-24T06:50:40.215Z,23.44
2017-10-24T06:51:12.498Z,23.41
2017-10-24T06:51:44.655Z,23.44
2017-10-24T06:52:16.831Z,23.5
2017-10-24T06:52:48.994Z,23.47
2017-10-24T06:53:21.126Z,23.42
2017-10-24T06:53:53.221Z,23.44
2017-10-24T06:54:25.386Z,23.44
2017-10-24T06:54:57.904Z,23.47
2017-10-24T06:55:30.931Z,23.48